East Orchard Mesa, Colorado
Current Conditions -  °F | °C
As of 6:53 AM on Friday 24 Oct 2014 (Local Time) from KGJT Reporting Station
Clear Clear  
Wind Chill: 42°   Ceiling: Unl
Heat Index: 42°   Visibility: 10mi
Dew Point: 34°   Wind: 3mph
Humidity: 73%   Direction: NA
Pressure: 30.26"   Gusts: NA
Location:  39.0875°N, 108.348°W
Report Text: KGJT 241253Z VRB03KT 10SM CLR 06/01 A3026 RMK AO2 SLP219 T00560011
Loading
Personal Weather Stations






























Interactive Weather Map
Tropical Storm Tracking
New forecast layout! Learn more

10-Day Weather Forecast

Advertisements
Track Severe Weather on mobile